sensor_id;sensor_type;location;lat;lon;timestamp;P1;durP1;ratioP1;P2;durP2;ratioP2
78453;SDS011;67750;55.832;49.124;2023-09-12T00:02:12;9.93;;;4.67;;
78453;SDS011;67750;55.832;49.124;2023-09-12T00:04:41;8.28;;;4.37;;
78453;SDS011;67750;55.832;49.124;2023-09-12T00:07:11;8.10;;;4.60;;
78453;SDS011;67750;55.832;49.124;2023-09-12T00:09:40;9.23;;;4.80;;
78453;SDS011;67750;55.832;49.124;2023-09-12T00:12:13;7.03;;;4.40;;
78453;SDS011;67750;55.832;49.124;2023-09-12T00:14:41;7.85;;;4.60;;
78453;SDS011;67750;55.832;49.124;2023-09-12T00:17:11;5.47;;;4.20;;
78453;SDS011;67750;55.832;49.124;2023-09-12T00:19:40;7.42;;;4.67;;
78453;SDS011;67750;55.832;49.124;2023-09-12T00:22:10;7.20;;;4.37;;
78453;SDS011;67750;55.832;49.124;2023-09-12T00:24:39;10.72;;;4.53;;
78453;SDS011;67750;55.832;49.124;2023-09-12T00:27:09;5.97;;;4.15;;
78453;SDS011;67750;55.832;49.124;2023-09-12T00:29:38;7.03;;;4.20;;
78453;SDS011;67750;55.832;49.124;2023-09-12T00:32:08;6.47;;;4.42;;
78453;SDS011;67750;55.832;49.124;2023-09-12T00:34:37;7.22;;;4.58;;
78453;SDS011;67750;55.832;49.124;2023-09-12T00:37:07;7.33;;;4.45;;
78453;SDS011;67750;55.832;49.124;2023-09-12T00:39:37;6.58;;;4.65;;
78453;SDS011;67750;55.832;49.124;2023-09-12T00:42:06;7.80;;;4.70;;
78453;SDS011;67750;55.832;49.124;2023-09-12T00:44:36;7.00;;;4.53;;
78453;SDS011;67750;55.832;49.124;2023-09-12T00:47:05;8.08;;;4.62;;
78453;SDS011;67750;55.832;49.124;2023-09-12T00:49:35;5.72;;;4.00;;
78453;SDS011;67750;55.832;49.124;2023-09-12T00:52:05;6.67;;;4.37;;
78453;SDS011;67750;55.832;49.124;2023-09-12T00:54:35;9.75;;;4.28;;
78453;SDS011;67750;55.832;49.124;2023-09-12T00:57:06;7.40;;;4.10;;
78453;SDS011;67750;55.832;49.124;2023-09-12T00:59:36;6.65;;;4.58;;
78453;SDS011;67750;55.832;49.124;2023-09-12T01:02:06;6.83;;;4.17;;
78453;SDS011;67750;55.832;49.124;2023-09-12T01:04:36;8.58;;;5.10;;
78453;SDS011;67750;55.832;49.124;2023-09-12T01:07:05;5.87;;;4.00;;
78453;SDS011;67750;55.832;49.124;2023-09-12T01:09:35;6.85;;;4.60;;
78453;SDS011;67750;55.832;49.124;2023-09-12T01:12:06;7.08;;;4.65;;
78453;SDS011;67750;55.832;49.124;2023-09-12T01:14:35;8.80;;;4.90;;
78453;SDS011;67750;55.832;49.124;2023-09-12T01:17:05;7.97;;;4.50;;
78453;SDS011;67750;55.832;49.124;2023-09-12T01:19:34;7.28;;;4.35;;
78453;SDS011;67750;55.832;49.124;2023-09-12T01:30:33;6.05;;;4.00;;
78453;SDS011;67750;55.832;49.124;2023-09-12T01:33:04;6.97;;;4.00;;
78453;SDS011;67750;55.832;49.124;2023-09-12T01:35:34;8.70;;;4.22;;
78453;SDS011;67750;55.832;49.124;2023-09-12T01:38:04;7.70;;;4.58;;
78453;SDS011;67750;55.832;49.124;2023-09-12T01:40:36;6.85;;;4.40;;
78453;SDS011;67750;55.832;49.124;2023-09-12T01:43:05;6.62;;;4.30;;
78453;SDS011;67750;55.832;49.124;2023-09-12T01:45:35;5.97;;;4.28;;
78453;SDS011;67750;55.832;49.124;2023-09-12T01:48:06;6.83;;;4.53;;
78453;SDS011;67750;55.832;49.124;2023-09-12T01:50:36;7.30;;;4.12;;
78453;SDS011;67750;55.832;49.124;2023-09-12T01:53:06;6.78;;;4.28;;
78453;SDS011;67750;55.832;49.124;2023-09-12T01:55:35;7.47;;;4.65;;
78453;SDS011;67750;55.832;49.124;2023-09-12T01:58:06;8.15;;;4.62;;
78453;SDS011;67750;55.832;49.124;2023-09-12T02:00:35;7.08;;;4.55;;
78453;SDS011;67750;55.832;49.124;2023-09-12T02:03:05;7.58;;;4.70;;
78453;SDS011;67750;55.832;49.124;2023-09-12T02:05:35;8.55;;;4.67;;
78453;SDS011;67750;55.832;49.124;2023-09-12T02:08:05;7.53;;;4.58;;
78453;SDS011;67750;55.832;49.124;2023-09-12T02:10:34;7.97;;;4.20;;
78453;SDS011;67750;55.832;49.124;2023-09-12T02:13:04;6.67;;;4.30;;
78453;SDS011;67750;55.832;49.124;2023-09-12T02:15:34;7.53;;;4.53;;
78453;SDS011;67750;55.832;49.124;2023-09-12T02:18:03;6.37;;;4.50;;
78453;SDS011;67750;55.832;49.124;2023-09-12T02:20:37;6.78;;;4.78;;
78453;SDS011;67750;55.832;49.124;2023-09-12T02:25:33;6.83;;;4.05;;
78453;SDS011;67750;55.832;49.124;2023-09-12T02:28:03;6.15;;;4.72;;
78453;SDS011;67750;55.832;49.124;2023-09-12T02:30:33;6.92;;;4.47;;
78453;SDS011;67750;55.832;49.124;2023-09-12T02:33:03;6.95;;;4.45;;
78453;SDS011;67750;55.832;49.124;2023-09-12T02:35:32;6.70;;;4.28;;
78453;SDS011;67750;55.832;49.124;2023-09-12T02:38:02;8.58;;;4.90;;
78453;SDS011;67750;55.832;49.124;2023-09-12T02:40:32;7.47;;;4.47;;
78453;SDS011;67750;55.832;49.124;2023-09-12T02:43:01;6.97;;;4.50;;
78453;SDS011;67750;55.832;49.124;2023-09-12T02:45:31;6.05;;;4.35;;
78453;SDS011;67750;55.832;49.124;2023-09-12T02:48:01;11.95;;;6.10;;
78453;SDS011;67750;55.832;49.124;2023-09-12T02:50:30;8.58;;;5.08;;
78453;SDS011;67750;55.832;49.124;2023-09-12T02:53:00;7.45;;;4.33;;
78453;SDS011;67750;55.832;49.124;2023-09-12T02:55:29;6.85;;;4.33;;
78453;SDS011;67750;55.832;49.124;2023-09-12T02:57:59;6.83;;;4.65;;
78453;SDS011;67750;55.832;49.124;2023-09-12T03:00:29;6.67;;;4.55;;
78453;SDS011;67750;55.832;49.124;2023-09-12T03:02:58;8.98;;;4.80;;
78453;SDS011;67750;55.832;49.124;2023-09-12T03:08:18;8.65;;;4.97;;
78453;SDS011;67750;55.832;49.124;2023-09-12T03:10:52;8.20;;;4.30;;
78453;SDS011;67750;55.832;49.124;2023-09-12T03:13:19;7.12;;;4.60;;
78453;SDS011;67750;55.832;49.124;2023-09-12T03:15:48;7.70;;;5.08;;
78453;SDS011;67750;55.832;49.124;2023-09-12T03:18:18;6.65;;;4.42;;
78453;SDS011;67750;55.832;49.124;2023-09-12T03:20:48;7.25;;;4.17;;
78453;SDS011;67750;55.832;49.124;2023-09-12T03:23:19;8.38;;;4.75;;
78453;SDS011;67750;55.832;49.124;2023-09-12T03:25:48;6.65;;;4.72;;
78453;SDS011;67750;55.832;49.124;2023-09-12T03:28:18;7.30;;;4.80;;
78453;SDS011;67750;55.832;49.124;2023-09-12T03:30:48;8.90;;;4.92;;
78453;SDS011;67750;55.832;49.124;2023-09-12T03:33:17;9.33;;;4.78;;
78453;SDS011;67750;55.832;49.124;2023-09-12T03:35:47;11.57;;;6.20;;
78453;SDS011;67750;55.832;49.124;2023-09-12T03:38:16;6.47;;;4.22;;
78453;SDS011;67750;55.832;49.124;2023-09-12T03:43:17;16.25;;;5.53;;
78453;SDS011;67750;55.832;49.124;2023-09-12T03:45:48;6.35;;;4.53;;
78453;SDS011;67750;55.832;49.124;2023-09-12T03:48:18;6.95;;;5.22;;
78453;SDS011;67750;55.832;49.124;2023-09-12T03:50:48;6.85;;;4.53;;
78453;SDS011;67750;55.832;49.124;2023-09-12T03:53:18;15.68;;;4.53;;
78453;SDS011;67750;55.832;49.124;2023-09-12T03:55:48;8.00;;;4.17;;
78453;SDS011;67750;55.832;49.124;2023-09-12T03:58:17;6.42;;;4.62;;
78453;SDS011;67750;55.832;49.124;2023-09-12T04:00:47;8.65;;;5.15;;
78453;SDS011;67750;55.832;49.124;2023-09-12T04:03:17;9.30;;;4.53;;
78453;SDS011;67750;55.832;49.124;2023-09-12T04:05:47;12.43;;;5.22;;
78453;SDS011;67750;55.832;49.124;2023-09-12T04:08:17;9.48;;;5.12;;
78453;SDS011;67750;55.832;49.124;2023-09-12T04:10:47;7.10;;;4.40;;
78453;SDS011;67750;55.832;49.124;2023-09-12T04:13:16;9.30;;;5.67;;
78453;SDS011;67750;55.832;49.124;2023-09-12T04:15:46;9.15;;;4.20;;
78453;SDS011;67750;55.832;49.124;2023-09-12T04:18:15;7.45;;;4.60;;
78453;SDS011;67750;55.832;49.124;2023-09-12T04:20:45;9.90;;;4.80;;
78453;SDS011;67750;55.832;49.124;2023-09-12T04:23:15;9.33;;;5.15;;
78453;SDS011;67750;55.832;49.124;2023-09-12T04:25:45;9.70;;;5.00;;
78453;SDS011;67750;55.832;49.124;2023-09-12T04:28:15;8.00;;;4.62;;
78453;SDS011;67750;55.832;49.124;2023-09-12T04:30:45;8.13;;;5.28;;
78453;SDS011;67750;55.832;49.124;2023-09-12T04:33:14;11.40;;;4.75;;
78453;SDS011;67750;55.832;49.124;2023-09-12T04:35:44;8.63;;;4.58;;
78453;SDS011;67750;55.832;49.124;2023-09-12T04:38:14;10.20;;;5.22;;
78453;SDS011;67750;55.832;49.124;2023-09-12T04:40:52;7.05;;;4.75;;
78453;SDS011;67750;55.832;49.124;2023-09-12T04:43:15;9.35;;;4.90;;
78453;SDS011;67750;55.832;49.124;2023-09-12T04:45:45;7.78;;;4.72;;
78453;SDS011;67750;55.832;49.124;2023-09-12T04:48:15;7.67;;;3.92;;
78453;SDS011;67750;55.832;49.124;2023-09-12T04:50:45;7.05;;;4.62;;
78453;SDS011;67750;55.832;49.124;2023-09-12T04:53:15;6.62;;;4.42;;
78453;SDS011;67750;55.832;49.124;2023-09-12T04:58:14;7.85;;;4.67;;
78453;SDS011;67750;55.832;49.124;2023-09-12T05:00:45;5.50;;;3.83;;
78453;SDS011;67750;55.832;49.124;2023-09-12T05:03:15;6.90;;;4.30;;
78453;SDS011;67750;55.832;49.124;2023-09-12T05:08:34;6.17;;;4.35;;
78453;SDS011;67750;55.832;49.124;2023-09-12T05:11:04;5.20;;;3.87;;
78453;SDS011;67750;55.832;49.124;2023-09-12T05:13:33;6.97;;;4.65;;
78453;SDS011;67750;55.832;49.124;2023-09-12T05:16:03;5.55;;;4.15;;
78453;SDS011;67750;55.832;49.124;2023-09-12T05:18:33;9.00;;;4.45;;
78453;SDS011;67750;55.832;49.124;2023-09-12T05:21:02;6.05;;;4.37;;
78453;SDS011;67750;55.832;49.124;2023-09-12T05:23:32;6.92;;;4.17;;
78453;SDS011;67750;55.832;49.124;2023-09-12T05:26:02;6.70;;;4.58;;
78453;SDS011;67750;55.832;49.124;2023-09-12T05:28:33;5.78;;;4.28;;
78453;SDS011;67750;55.832;49.124;2023-09-12T05:31:03;5.60;;;3.77;;
78453;SDS011;67750;55.832;49.124;2023-09-12T05:33:53;7.35;;;4.33;;
78453;SDS011;67750;55.832;49.124;2023-09-12T05:36:22;6.85;;;4.17;;
78453;SDS011;67750;55.832;49.124;2023-09-12T05:38:52;7.10;;;4.37;;
78453;SDS011;67750;55.832;49.124;2023-09-12T05:41:21;10.18;;;4.80;;
78453;SDS011;67750;55.832;49.124;2023-09-12T05:43:51;7.58;;;4.83;;
78453;SDS011;67750;55.832;49.124;2023-09-12T05:46:20;8.25;;;5.17;;
78453;SDS011;67750;55.832;49.124;2023-09-12T05:48:50;5.83;;;4.20;;
78453;SDS011;67750;55.832;49.124;2023-09-12T05:51:19;7.60;;;4.62;;
78453;SDS011;67750;55.832;49.124;2023-09-12T05:53:49;6.35;;;4.80;;
78453;SDS011;67750;55.832;49.124;2023-09-12T05:56:18;6.35;;;4.67;;
78453;SDS011;67750;55.832;49.124;2023-09-12T05:58:48;6.08;;;3.95;;
78453;SDS011;67750;55.832;49.124;2023-09-12T06:01:18;6.65;;;4.67;;
78453;SDS011;67750;55.832;49.124;2023-09-12T06:03:47;8.13;;;4.50;;
78453;SDS011;67750;55.832;49.124;2023-09-12T06:06:17;6.30;;;4.53;;
78453;SDS011;67750;55.832;49.124;2023-09-12T06:08:47;7.87;;;5.35;;
78453;SDS011;67750;55.832;49.124;2023-09-12T06:11:16;9.63;;;5.55;;
78453;SDS011;67750;55.832;49.124;2023-09-12T06:13:46;9.18;;;5.22;;
78453;SDS011;67750;55.832;49.124;2023-09-12T06:16:15;9.15;;;5.08;;
78453;SDS011;67750;55.832;49.124;2023-09-12T06:18:45;8.78;;;5.60;;
78453;SDS011;67750;55.832;49.124;2023-09-12T06:21:15;9.35;;;5.60;;
78453;SDS011;67750;55.832;49.124;2023-09-12T06:23:44;13.62;;;5.80;;
78453;SDS011;67750;55.832;49.124;2023-09-12T06:26:14;14.20;;;6.47;;
78453;SDS011;67750;55.832;49.124;2023-09-12T06:28:46;10.25;;;6.40;;
78453;SDS011;67750;55.832;49.124;2023-09-12T06:31:15;9.48;;;5.87;;
78453;SDS011;67750;55.832;49.124;2023-09-12T06:33:45;9.58;;;6.65;;
78453;SDS011;67750;55.832;49.124;2023-09-12T06:36:14;10.18;;;6.00;;
78453;SDS011;67750;55.832;49.124;2023-09-12T06:38:44;8.83;;;5.65;;
78453;SDS011;67750;55.832;49.124;2023-09-12T06:41:13;10.03;;;5.30;;
78453;SDS011;67750;55.832;49.124;2023-09-12T06:43:43;8.23;;;5.47;;
78453;SDS011;67750;55.832;49.124;2023-09-12T06:46:13;7.22;;;5.12;;
78453;SDS011;67750;55.832;49.124;2023-09-12T06:49:03;8.88;;;4.53;;
78453;SDS011;67750;55.832;49.124;2023-09-12T06:51:33;8.03;;;4.92;;
78453;SDS011;67750;55.832;49.124;2023-09-12T06:54:02;8.00;;;4.92;;
78453;SDS011;67750;55.832;49.124;2023-09-12T06:56:32;8.13;;;5.12;;
78453;SDS011;67750;55.832;49.124;2023-09-12T06:59:04;9.48;;;5.30;;
78453;SDS011;67750;55.832;49.124;2023-09-12T07:01:33;10.55;;;4.67;;
78453;SDS011;67750;55.832;49.124;2023-09-12T07:04:04;5.35;;;3.85;;
78453;SDS011;67750;55.832;49.124;2023-09-12T07:06:33;8.70;;;3.92;;
78453;SDS011;67750;55.832;49.124;2023-09-12T07:09:03;6.58;;;4.10;;
78453;SDS011;67750;55.832;49.124;2023-09-12T07:11:33;6.37;;;4.10;;
78453;SDS011;67750;55.832;49.124;2023-09-12T07:14:03;6.72;;;3.50;;
78453;SDS011;67750;55.832;49.124;2023-09-12T07:16:32;6.58;;;3.67;;
78453;SDS011;67750;55.832;49.124;2023-09-12T07:19:02;6.47;;;4.08;;
78453;SDS011;67750;55.832;49.124;2023-09-12T07:21:32;6.70;;;3.50;;
78453;SDS011;67750;55.832;49.124;2023-09-12T07:24:03;5.22;;;3.58;;
78453;SDS011;67750;55.832;49.124;2023-09-12T07:26:33;5.60;;;3.33;;
78453;SDS011;67750;55.832;49.124;2023-09-12T07:29:03;5.35;;;3.37;;
78453;SDS011;67750;55.832;49.124;2023-09-12T07:31:33;6.72;;;4.10;;
78453;SDS011;67750;55.832;49.124;2023-09-12T07:34:02;6.30;;;3.58;;
78453;SDS011;67750;55.832;49.124;2023-09-12T07:36:32;5.58;;;3.55;;
78453;SDS011;67750;55.832;49.124;2023-09-12T07:39:01;5.47;;;3.37;;
78453;SDS011;67750;55.832;49.124;2023-09-12T07:41:31;5.00;;;3.40;;
78453;SDS011;67750;55.832;49.124;2023-09-12T07:44:01;5.20;;;3.92;;
78453;SDS011;67750;55.832;49.124;2023-09-12T07:46:31;5.28;;;3.37;;
78453;SDS011;67750;55.832;49.124;2023-09-12T07:49:01;5.37;;;3.87;;
78453;SDS011;67750;55.832;49.124;2023-09-12T07:51:30;5.08;;;3.75;;
78453;SDS011;67750;55.832;49.124;2023-09-12T07:54:00;5.10;;;3.50;;
78453;SDS011;67750;55.832;49.124;2023-09-12T07:56:29;4.92;;;3.67;;
78453;SDS011;67750;55.832;49.124;2023-09-12T07:58:59;5.10;;;3.75;;
78453;SDS011;67750;55.832;49.124;2023-09-12T08:01:28;8.68;;;3.92;;
78453;SDS011;67750;55.832;49.124;2023-09-12T08:03:58;5.20;;;3.87;;
78453;SDS011;67750;55.832;49.124;2023-09-12T08:06:27;5.28;;;3.62;;
78453;SDS011;67750;55.832;49.124;2023-09-12T08:08:58;7.50;;;4.03;;
78453;SDS011;67750;55.832;49.124;2023-09-12T08:11:27;5.80;;;3.70;;
78453;SDS011;67750;55.832;49.124;2023-09-12T08:13:57;6.40;;;3.35;;
78453;SDS011;67750;55.832;49.124;2023-09-12T08:16:26;9.35;;;3.95;;
78453;SDS011;67750;55.832;49.124;2023-09-12T08:18:58;6.67;;;3.72;;
78453;SDS011;67750;55.832;49.124;2023-09-12T08:21:27;7.17;;;4.15;;
78453;SDS011;67750;55.832;49.124;2023-09-12T08:23:57;6.70;;;3.70;;
78453;SDS011;67750;55.832;49.124;2023-09-12T08:26:26;8.28;;;3.77;;
78453;SDS011;67750;55.832;49.124;2023-09-12T08:28:56;7.30;;;3.70;;
78453;SDS011;67750;55.832;49.124;2023-09-12T08:31:25;5.47;;;3.70;;
78453;SDS011;67750;55.832;49.124;2023-09-12T08:33:55;5.53;;;3.83;;
78453;SDS011;67750;55.832;49.124;2023-09-12T08:36:24;7.03;;;3.50;;
78453;SDS011;67750;55.832;49.124;2023-09-12T08:38:54;5.25;;;2.95;;
78453;SDS011;67750;55.832;49.124;2023-09-12T08:41:23;8.65;;;3.05;;
78453;SDS011;67750;55.832;49.124;2023-09-12T08:43:53;4.85;;;2.70;;
78453;SDS011;67750;55.832;49.124;2023-09-12T08:46:23;5.60;;;2.85;;
78453;SDS011;67750;55.832;49.124;2023-09-12T08:48:55;5.28;;;3.12;;
78453;SDS011;67750;55.832;49.124;2023-09-12T08:51:24;9.15;;;3.40;;
78453;SDS011;67750;55.832;49.124;2023-09-12T08:53:54;4.72;;;3.35;;
78453;SDS011;67750;55.832;49.124;2023-09-12T08:56:23;7.42;;;3.55;;
78453;SDS011;67750;55.832;49.124;2023-09-12T08:58:53;6.33;;;3.60;;
78453;SDS011;67750;55.832;49.124;2023-09-12T09:01:23;4.62;;;3.10;;
78453;SDS011;67750;55.832;49.124;2023-09-12T09:04:13;9.88;;;3.75;;
78453;SDS011;67750;55.832;49.124;2023-09-12T09:06:43;7.08;;;3.70;;
78453;SDS011;67750;55.832;49.124;2023-09-12T09:09:13;6.22;;;3.50;;
78453;SDS011;67750;55.832;49.124;2023-09-12T09:11:42;6.20;;;3.83;;
78453;SDS011;67750;55.832;49.124;2023-09-12T09:14:13;6.47;;;3.55;;
78453;SDS011;67750;55.832;49.124;2023-09-12T09:16:45;7.70;;;4.12;;
78453;SDS011;67750;55.832;49.124;2023-09-12T09:19:15;6.35;;;3.22;;
78453;SDS011;67750;55.832;49.124;2023-09-12T09:21:46;5.72;;;3.22;;
78453;SDS011;67750;55.832;49.124;2023-09-12T09:24:16;6.70;;;3.55;;
78453;SDS011;67750;55.832;49.124;2023-09-12T09:26:49;8.48;;;3.50;;
78453;SDS011;67750;55.832;49.124;2023-09-12T09:29:20;4.50;;;3.40;;
78453;SDS011;67750;55.832;49.124;2023-09-12T09:31:50;5.92;;;3.20;;
78453;SDS011;67750;55.832;49.124;2023-09-12T09:34:21;8.93;;;3.40;;
78453;SDS011;67750;55.832;49.124;2023-09-12T09:36:52;6.25;;;3.15;;
78453;SDS011;67750;55.832;49.124;2023-09-12T09:42:11;5.85;;;3.27;;
78453;SDS011;67750;55.832;49.124;2023-09-12T09:44:40;4.30;;;2.83;;
78453;SDS011;67750;55.832;49.124;2023-09-12T09:47:10;6.83;;;2.47;;
78453;SDS011;67750;55.832;49.124;2023-09-12T09:49:40;5.92;;;2.67;;
78453;SDS011;67750;55.832;49.124;2023-09-12T09:52:09;6.03;;;2.83;;
78453;SDS011;67750;55.832;49.124;2023-09-12T09:57:28;6.15;;;2.62;;
78453;SDS011;67750;55.832;49.124;2023-09-12T09:59:58;7.70;;;2.87;;
78453;SDS011;67750;55.832;49.124;2023-09-12T10:02:29;6.35;;;2.58;;
78453;SDS011;67750;55.832;49.124;2023-09-12T10:04:59;6.17;;;2.60;;
78453;SDS011;67750;55.832;49.124;2023-09-12T10:07:32;4.90;;;2.72;;
78453;SDS011;67750;55.832;49.124;2023-09-12T10:10:02;7.03;;;2.80;;
78453;SDS011;67750;55.832;49.124;2023-09-12T10:12:34;5.12;;;2.80;;
78453;SDS011;67750;55.832;49.124;2023-09-12T10:15:03;4.58;;;2.65;;
78453;SDS011;67750;55.832;49.124;2023-09-12T10:17:35;4.53;;;2.67;;
78453;SDS011;67750;55.832;49.124;2023-09-12T10:23:07;4.78;;;2.40;;
78453;SDS011;67750;55.832;49.124;2023-09-12T10:25:06;4.87;;;2.60;;
78453;SDS011;67750;55.832;49.124;2023-09-12T10:27:36;8.00;;;2.60;;
78453;SDS011;67750;55.832;49.124;2023-09-12T10:30:07;7.35;;;2.45;;
78453;SDS011;67750;55.832;49.124;2023-09-12T10:35:06;5.40;;;2.40;;
78453;SDS011;67750;55.832;49.124;2023-09-12T10:37:35;3.92;;;2.12;;
78453;SDS011;67750;55.832;49.124;2023-09-12T10:40:07;5.40;;;2.47;;
78453;SDS011;67750;55.832;49.124;2023-09-12T10:42:37;5.05;;;2.33;;
78453;SDS011;67750;55.832;49.124;2023-09-12T10:45:08;3.17;;;2.22;;
78453;SDS011;67750;55.832;49.124;2023-09-12T10:47:38;6.70;;;3.10;;
78453;SDS011;67750;55.832;49.124;2023-09-12T10:50:08;8.60;;;2.70;;
78453;SDS011;67750;55.832;49.124;2023-09-12T10:52:38;4.92;;;2.17;;
78453;SDS011;67750;55.832;49.124;2023-09-12T10:55:09;5.22;;;2.37;;
78453;SDS011;67750;55.832;49.124;2023-09-12T10:57:59;5.90;;;2.52;;
78453;SDS011;67750;55.832;49.124;2023-09-12T11:08:00;4.25;;;1.82;;
78453;SDS011;67750;55.832;49.124;2023-09-12T11:13:40;3.55;;;1.90;;
78453;SDS011;67750;55.832;49.124;2023-09-12T11:16:10;3.98;;;1.90;;
78453;SDS011;67750;55.832;49.124;2023-09-12T11:24:20;8.48;;;2.10;;
78453;SDS011;67750;55.832;49.124;2023-09-12T11:29:39;3.08;;;1.92;;
78453;SDS011;67750;55.832;49.124;2023-09-12T11:32:09;5.20;;;2.00;;
78453;SDS011;67750;55.832;49.124;2023-09-12T11:37:28;3.70;;;1.82;;
78453;SDS011;67750;55.832;49.124;2023-09-12T11:39:57;5.42;;;1.92;;
78453;SDS011;67750;55.832;49.124;2023-09-12T11:42:27;2.77;;;1.80;;
78453;SDS011;67750;55.832;49.124;2023-09-12T11:44:57;3.55;;;1.95;;
78453;SDS011;67750;55.832;49.124;2023-09-12T11:47:27;4.17;;;2.27;;
78453;SDS011;67750;55.832;49.124;2023-09-12T11:49:56;9.83;;;2.15;;
78453;SDS011;67750;55.832;49.124;2023-09-12T11:52:26;3.98;;;1.85;;
78453;SDS011;67750;55.832;49.124;2023-09-12T11:54:55;5.92;;;2.33;;
78453;SDS011;67750;55.832;49.124;2023-09-12T11:57:25;6.10;;;2.25;;
78453;SDS011;67750;55.832;49.124;2023-09-12T11:59:54;3.33;;;2.00;;
78453;SDS011;67750;55.832;49.124;2023-09-12T12:02:25;6.75;;;2.60;;
78453;SDS011;67750;55.832;49.124;2023-09-12T12:04:54;2.62;;;1.60;;
78453;SDS011;67750;55.832;49.124;2023-09-12T12:07:25;3.77;;;2.17;;
78453;SDS011;67750;55.832;49.124;2023-09-12T12:09:56;2.98;;;1.70;;
78453;SDS011;67750;55.832;49.124;2023-09-12T12:12:25;5.78;;;2.40;;
78453;SDS011;67750;55.832;49.124;2023-09-12T12:14:55;6.75;;;2.25;;
78453;SDS011;67750;55.832;49.124;2023-09-12T12:17:25;3.08;;;2.22;;
78453;SDS011;67750;55.832;49.124;2023-09-12T12:19:54;5.33;;;2.12;;
78453;SDS011;67750;55.832;49.124;2023-09-12T12:22:24;5.30;;;1.80;;
78453;SDS011;67750;55.832;49.124;2023-09-12T12:24:53;5.50;;;2.12;;
78453;SDS011;67750;55.832;49.124;2023-09-12T12:27:23;3.98;;;2.00;;
78453;SDS011;67750;55.832;49.124;2023-09-12T12:29:53;4.90;;;2.22;;
78453;SDS011;67750;55.832;49.124;2023-09-12T12:32:22;3.33;;;1.82;;
78453;SDS011;67750;55.832;49.124;2023-09-12T12:34:52;3.10;;;1.87;;
78453;SDS011;67750;55.832;49.124;2023-09-12T12:37:27;3.00;;;1.62;;
78453;SDS011;67750;55.832;49.124;2023-09-12T12:39:54;2.40;;;1.80;;
78453;SDS011;67750;55.832;49.124;2023-09-12T12:42:24;2.98;;;1.80;;
78453;SDS011;67750;55.832;49.124;2023-09-12T12:44:54;3.35;;;2.02;;
78453;SDS011;67750;55.832;49.124;2023-09-12T12:47:23;2.70;;;1.90;;
78453;SDS011;67750;55.832;49.124;2023-09-12T12:50:14;5.53;;;1.90;;
78453;SDS011;67750;55.832;49.124;2023-09-12T12:52:46;6.83;;;2.33;;
78453;SDS011;67750;55.832;49.124;2023-09-12T12:55:16;4.67;;;2.20;;
78453;SDS011;67750;55.832;49.124;2023-09-12T12:57:49;4.35;;;1.98;;
78453;SDS011;67750;55.832;49.124;2023-09-12T13:00:20;3.40;;;2.10;;
78453;SDS011;67750;55.832;49.124;2023-09-12T13:02:50;2.98;;;2.05;;
78453;SDS011;67750;55.832;49.124;2023-09-12T13:05:21;3.33;;;2.25;;
78453;SDS011;67750;55.832;49.124;2023-09-12T13:07:51;2.77;;;1.90;;
78453;SDS011;67750;55.832;49.124;2023-09-12T13:10:21;3.47;;;1.70;;
78453;SDS011;67750;55.832;49.124;2023-09-12T13:12:51;3.90;;;1.62;;
78453;SDS011;67750;55.832;49.124;2023-09-12T13:15:20;5.15;;;1.95;;
78453;SDS011;67750;55.832;49.124;2023-09-12T13:17:50;2.55;;;1.67;;
78453;SDS011;67750;55.832;49.124;2023-09-12T13:20:19;7.80;;;1.70;;
78453;SDS011;67750;55.832;49.124;2023-09-12T13:22:49;7.75;;;2.08;;
78453;SDS011;67750;55.832;49.124;2023-09-12T13:25:18;5.45;;;1.90;;
78453;SDS011;67750;55.832;49.124;2023-09-12T13:27:49;3.40;;;2.12;;
78453;SDS011;67750;55.832;49.124;2023-09-12T13:30:19;3.72;;;2.10;;
78453;SDS011;67750;55.832;49.124;2023-09-12T13:32:49;5.35;;;2.30;;
78453;SDS011;67750;55.832;49.124;2023-09-12T13:35:18;3.62;;;2.02;;
78453;SDS011;67750;55.832;49.124;2023-09-12T13:37:47;5.65;;;2.45;;
78453;SDS011;67750;55.832;49.124;2023-09-12T13:40:17;6.40;;;2.37;;
78453;SDS011;67750;55.832;49.124;2023-09-12T13:45:16;5.25;;;2.37;;
78453;SDS011;67750;55.832;49.124;2023-09-12T13:47:46;5.67;;;2.17;;
78453;SDS011;67750;55.832;49.124;2023-09-12T13:50:15;5.15;;;2.20;;
78453;SDS011;67750;55.832;49.124;2023-09-12T13:52:45;8.88;;;2.60;;
78453;SDS011;67750;55.832;49.124;2023-09-12T13:55:14;5.72;;;2.60;;
78453;SDS011;67750;55.832;49.124;2023-09-12T13:57:44;9.25;;;2.52;;
78453;SDS011;67750;55.832;49.124;2023-09-12T14:00:13;7.85;;;2.80;;
78453;SDS011;67750;55.832;49.124;2023-09-12T14:02:43;3.85;;;2.30;;
78453;SDS011;67750;55.832;49.124;2023-09-12T14:05:13;6.00;;;2.55;;
78453;SDS011;67750;55.832;49.124;2023-09-12T14:07:43;3.85;;;2.77;;
78453;SDS011;67750;55.832;49.124;2023-09-12T14:10:13;7.70;;;2.50;;
78453;SDS011;67750;55.832;49.124;2023-09-12T14:12:42;5.95;;;2.90;;
78453;SDS011;67750;55.832;49.124;2023-09-12T14:15:12;8.28;;;3.30;;
78453;SDS011;67750;55.832;49.124;2023-09-12T14:17:41;8.48;;;3.60;;
78453;SDS011;67750;55.832;49.124;2023-09-12T14:20:11;6.72;;;3.70;;
78453;SDS011;67750;55.832;49.124;2023-09-12T14:22:43;5.95;;;3.35;;
78453;SDS011;67750;55.832;49.124;2023-09-12T14:25:12;7.58;;;3.55;;
78453;SDS011;67750;55.832;49.124;2023-09-12T14:27:42;8.53;;;3.77;;
78453;SDS011;67750;55.832;49.124;2023-09-12T14:30:12;10.13;;;3.55;;
78453;SDS011;67750;55.832;49.124;2023-09-12T14:32:42;5.78;;;3.10;;
78453;SDS011;67750;55.832;49.124;2023-09-12T14:35:11;5.75;;;2.70;;
78453;SDS011;67750;55.832;49.124;2023-09-12T14:37:41;6.30;;;3.12;;
78453;SDS011;67750;55.832;49.124;2023-09-12T14:40:12;6.58;;;3.20;;
78453;SDS011;67750;55.832;49.124;2023-09-12T14:42:43;9.68;;;3.25;;
78453;SDS011;67750;55.832;49.124;2023-09-12T14:45:13;8.20;;;3.05;;
78453;SDS011;67750;55.832;49.124;2023-09-12T14:47:42;9.05;;;3.20;;
78453;SDS011;67750;55.832;49.124;2023-09-12T14:50:12;6.83;;;3.45;;
78453;SDS011;67750;55.832;49.124;2023-09-12T14:52:42;7.00;;;3.10;;
78453;SDS011;67750;55.832;49.124;2023-09-12T14:55:11;8.58;;;3.33;;
78453;SDS011;67750;55.832;49.124;2023-09-12T14:57:41;9.93;;;4.08;;
78453;SDS011;67750;55.832;49.124;2023-09-12T15:00:11;9.88;;;4.22;;
78453;SDS011;67750;55.832;49.124;2023-09-12T15:02:41;10.50;;;4.20;;
78453;SDS011;67750;55.832;49.124;2023-09-12T15:05:10;13.55;;;4.72;;
78453;SDS011;67750;55.832;49.124;2023-09-12T15:07:40;10.38;;;6.00;;
78453;SDS011;67750;55.832;49.124;2023-09-12T15:10:09;11.08;;;4.97;;
78453;SDS011;67750;55.832;49.124;2023-09-12T15:12:39;10.38;;;4.83;;
78453;SDS011;67750;55.832;49.124;2023-09-12T15:15:09;13.38;;;4.25;;
78453;SDS011;67750;55.832;49.124;2023-09-12T15:17:39;8.80;;;4.80;;
78453;SDS011;67750;55.832;49.124;2023-09-12T15:20:09;6.72;;;4.30;;
78453;SDS011;67750;55.832;49.124;2023-09-12T15:22:39;8.83;;;3.98;;
78453;SDS011;67750;55.832;49.124;2023-09-12T15:25:10;10.93;;;3.52;;
78453;SDS011;67750;55.832;49.124;2023-09-12T15:27:39;6.22;;;3.33;;
78453;SDS011;67750;55.832;49.124;2023-09-12T15:30:09;6.35;;;3.17;;
78453;SDS011;67750;55.832;49.124;2023-09-12T15:32:38;6.12;;;3.60;;
78453;SDS011;67750;55.832;49.124;2023-09-12T15:35:08;9.98;;;3.52;;
78453;SDS011;67750;55.832;49.124;2023-09-12T15:37:39;7.95;;;4.08;;
78453;SDS011;67750;55.832;49.124;2023-09-12T15:40:09;6.50;;;4.40;;
78453;SDS011;67750;55.832;49.124;2023-09-12T15:42:39;9.75;;;3.90;;
78453;SDS011;67750;55.832;49.124;2023-09-12T15:45:08;11.95;;;4.10;;
78453;SDS011;67750;55.832;49.124;2023-09-12T15:47:38;10.10;;;3.67;;